Time;durP1;ratioP1;P1;durP2;ratioP2;P2;SDS_P1;SDS_P2;PMS_P1;PMS_P2;Temp;Humidity;BMP_temperature;BMP_pressure;BME280_temperature;BME280_humidity;BME280_pressure;Samples;Min_cycle;Max_cycle;Signal;HPM_P1;HPM_P2
2022/02/27 00:00:32;;;;;;;22.10;15.72;;;;;;;3.45;56.26;95734.27;1505838;94;21056;-62
2022/02/27 00:03:00;;;;;;;32.67;18.37;;;;;;;3.45;56.31;95728.83;1503051;94;22284;-60
2022/02/27 00:05:27;;;;;;;42.83;20.88;;;;;;;3.50;56.35;95727.31;1497679;94;21079;-59
2022/02/27 00:07:54;;;;;;;38.70;19.85;;;;;;;3.61;56.11;95726.02;1503322;94;21196;-60
2022/02/27 00:10:22;;;;;;;34.63;18.70;;;;;;;3.65;56.01;95724.13;1520385;94;21688;-60
2022/02/27 00:12:50;;;;;;;35.80;17.32;;;;;;;3.62;56.61;95728.38;1515346;93;21516;-58
2022/02/27 00:15:17;;;;;;;33.40;17.90;;;;;;;3.64;56.36;95724.70;1503972;93;21150;-64
2022/02/27 00:17:44;;;;;;;29.27;13.65;;;;;;;3.65;56.06;95723.53;1503701;94;21162;-60
2022/02/27 00:20:11;;;;;;;61.95;22.45;;;;;;;3.65;55.71;95730.34;1518016;92;21162;-61
2022/02/27 00:22:38;;;;;;;89.80;28.95;;;;;;;3.63;55.56;95728.58;1495839;94;22559;-59
2022/02/27 00:25:07;;;;;;;65.87;25.55;;;;;;;3.53;55.65;95729.27;1503403;93;21544;-58
2022/02/27 00:27:36;;;;;;;50.63;20.97;;;;;;;3.46;55.99;95731.75;1501295;94;21555;-59
2022/02/27 00:30:06;;;;;;;57.65;24.45;;;;;;;3.43;56.26;95729.20;1501036;94;21099;-59
2022/02/27 00:32:33;;;;;;;68.65;31.35;;;;;;;3.39;56.69;95733.84;1506271;94;21162;-59
2022/02/27 00:35:00;;;;;;;57.95;27.77;;;;;;;3.41;57.23;95725.31;1504331;94;21099;-58
2022/02/27 00:37:27;;;;;;;58.23;27.65;;;;;;;3.44;57.26;95724.55;1488229;94;21045;-56
2022/02/27 00:39:54;;;;;;;66.15;30.97;;;;;;;3.36;57.22;95729.16;1494172;95;21100;-56
2022/02/27 00:42:21;;;;;;;54.73;26.00;;;;;;;3.38;57.68;95732.27;1499742;94;21020;-58
2022/02/27 00:44:48;;;;;;;60.65;25.62;;;;;;;3.46;58.05;95726.31;1504911;94;21203;-58
2022/02/27 00:47:15;;;;;;;65.35;28.77;;;;;;;3.45;57.94;95733.67;1451028;94;21570;-56
2022/02/27 00:49:41;;;;;;;62.23;26.40;;;;;;;3.41;58.08;95727.44;1517955;94;21142;-56
2022/02/27 00:52:09;;;;;;;48.70;23.67;;;;;;;3.48;57.87;95722.63;1510288;94;21031;-56
2022/02/27 00:54:36;;;;;;;57.25;27.05;;;;;;;3.53;58.18;95728.51;1510277;94;21566;-56
2022/02/27 00:57:04;;;;;;;52.05;24.23;;;;;;;3.51;58.37;95724.03;1514591;94;21156;-57
2022/02/27 00:59:31;;;;;;;34.13;17.85;;;;;;;3.49;58.52;95724.39;1523837;94;21120;-58
2022/02/27 01:01:57;;;;;;;44.05;21.25;;;;;;;3.42;58.56;95723.56;1518919;92;21484;-57
2022/02/27 01:04:24;;;;;;;52.35;24.52;;;;;;;3.27;58.85;95722.48;1521222;92;21562;-57
2022/02/27 01:06:51;;;;;;;42.00;25.10;;;;;;;3.11;59.43;95718.67;1500348;94;21835;-57
2022/02/27 01:09:18;;;;;;;51.92;25.85;;;;;;;3.11;59.37;95719.23;1525234;94;21234;-59
2022/02/27 01:11:45;;;;;;;48.58;23.85;;;;;;;3.13;59.72;95711.48;1525568;94;21206;-59
2022/02/27 01:14:11;;;;;;;45.30;23.70;;;;;;;3.15;60.11;95715.96;1474077;94;21137;-59
2022/02/27 01:16:40;;;;;;;46.45;25.32;;;;;;;3.19;60.52;95718.92;1504874;93;21080;-57
2022/02/27 01:19:08;;;;;;;65.75;32.60;;;;;;;3.30;60.36;95714.36;1510158;94;21097;-59
2022/02/27 01:21:35;;;;;;;140.30;54.60;;;;;;;3.38;59.81;95715.20;1499605;92;21964;-55
2022/02/27 01:24:03;;;;;;;123.22;57.90;;;;;;;3.31;59.77;95712.41;1499481;94;21145;-59
2022/02/27 01:26:30;;;;;;;120.05;54.38;;;;;;;3.24;60.03;95715.08;1478022;96;21046;-58
2022/02/27 01:28:58;;;;;;;179.50;69.60;;;;;;;3.25;60.12;95713.92;1472720;96;21087;-56
2022/02/27 01:31:26;;;;;;;154.57;64.53;;;;;;;3.31;60.36;95712.41;1508169;93;21545;-55
2022/02/27 01:33:53;;;;;;;150.50;64.05;;;;;;;3.35;60.24;95706.41;1470401;96;21182;-56
2022/02/27 01:36:19;;;;;;;135.93;57.58;;;;;;;3.38;60.14;95701.59;1477696;97;21087;-56
2022/02/27 01:38:46;;;;;;;117.30;47.58;;;;;;;3.44;60.18;95709.59;1485732;95;21147;-59
2022/02/27 01:41:15;;;;;;;108.15;46.95;;;;;;;3.47;60.05;95706.11;1506594;92;21096;-57
2022/02/27 01:43:43;;;;;;;101.07;47.85;;;;;;;3.51;59.95;95704.98;1502492;94;21241;-56
2022/02/27 01:46:10;;;;;;;110.42;53.40;;;;;;;3.59;59.87;95708.73;1504224;94;21216;-59
2022/02/27 01:48:38;;;;;;;98.75;49.18;;;;;;;3.63;59.53;95701.38;1499086;94;21626;-57
2022/02/27 01:51:05;;;;;;;130.32;64.80;;;;;;;3.59;59.62;95699.78;1509147;94;21083;-57
2022/02/27 01:53:33;;;;;;;107.95;55.75;;;;;;;3.61;59.70;95706.41;1510308;94;21651;-57
2022/02/27 01:56:01;;;;;;;104.58;50.45;;;;;;;3.64;59.37;95697.48;1483520;94;21105;-59
2022/02/27 01:58:29;;;;;;;102.80;52.43;;;;;;;3.52;59.69;95699.16;1509755;93;21179;-57
2022/02/27 02:00:57;;;;;;;97.53;48.17;;;;;;;3.51;60.14;95698.95;1495746;94;21072;-57
2022/02/27 02:03:25;;;;;;;96.80;48.23;;;;;;;3.54;59.91;95702.27;1497527;94;21111;-56
2022/02/27 02:05:53;;;;;;;97.88;50.78;;;;;;;3.43;59.70;95685.68;1502272;94;21107;-56
2022/02/27 02:08:19;;;;;;;117.40;54.18;;;;;;;3.29;60.04;95695.69;1479935;95;21497;-55
2022/02/27 02:10:47;;;;;;;129.05;57.78;;;;;;;3.27;60.34;95691.20;1499307;93;22061;-56
2022/02/27 02:13:16;;;;;;;121.65;55.80;;;;;;;3.29;60.46;95688.89;1472418;96;21117;-56
2022/02/27 02:15:44;;;;;;;106.67;50.45;;;;;;;3.30;60.53;95691.81;1470511;96;21093;-56
2022/02/27 02:18:11;;;;;;;78.55;37.67;;;;;;;3.28;60.66;95690.05;1498280;93;21089;-57
2022/02/27 02:20:40;;;;;;;67.62;32.98;;;;;;;3.27;60.54;95687.13;1471735;96;21025;-56
2022/02/27 02:23:08;;;;;;;64.82;32.48;;;;;;;3.25;60.46;95684.02;1473877;96;21513;-57
2022/02/27 02:25:36;;;;;;;61.85;30.05;;;;;;;3.24;60.60;95687.89;1482527;95;21038;-56
2022/02/27 02:28:04;;;;;;;58.15;30.08;;;;;;;3.24;60.56;95677.02;1482123;96;21585;-56
2022/02/27 02:30:31;;;;;;;71.02;32.88;;;;;;;3.21;60.70;95677.77;1499701;95;21045;-56
2022/02/27 02:32:58;;;;;;;70.22;33.58;;;;;;;3.23;60.87;95679.53;1477887;95;21142;-56
2022/02/27 02:35:28;;;;;;;71.80;34.03;;;;;;;3.32;60.47;95682.13;1478134;95;21842;-57
2022/02/27 02:37:55;;;;;;;70.83;33.35;;;;;;;3.34;60.24;95684.45;1470548;96;21126;-56
2022/02/27 02:40:24;;;;;;;66.17;32.88;;;;;;;3.35;60.38;95676.49;1478171;97;21101;-55
2022/02/27 02:42:52;;;;;;;72.90;37.55;;;;;;;3.33;60.08;95674.73;1499483;94;21101;-57
2022/02/27 02:45:19;;;;;;;77.42;39.30;;;;;;;3.22;60.40;95676.61;1477841;97;21026;-58
2022/02/27 02:47:47;;;;;;;58.87;29.92;;;;;;;3.08;60.67;95679.22;1477891;97;22376;-58
2022/02/27 02:50:15;;;;;;;65.87;31.30;;;;;;;2.97;61.13;95675.62;1478086;97;21134;-56
2022/02/27 02:52:43;;;;;;;64.47;32.17;;;;;;;2.90;61.00;95677.70;1461667;95;21061;-57
2022/02/27 02:55:17;;;;;;;88.45;44.30;;;;;;;2.88;61.17;95669.73;1507741;93;21034;-58
2022/02/27 02:57:44;;;;;;;86.40;43.23;;;;;;;2.84;61.58;95676.48;1497953;94;21080;-59
2022/02/27 03:00:12;;;;;;;80.10;40.30;;;;;;;2.86;61.89;95677.48;1509034;93;21822;-58
2022/02/27 03:02:39;;;;;;;60.52;33.02;;;;;;;2.91;61.97;95677.13;1502380;95;21673;-58
2022/02/27 03:05:08;;;;;;;62.40;32.38;;;;;;;2.88;61.95;95682.73;1495169;94;21599;-57
2022/02/27 03:07:36;;;;;;;55.12;30.45;;;;;;;2.85;62.09;95681.36;1502364;94;21143;-56
2022/02/27 03:10:06;;;;;;;66.55;33.42;;;;;;;2.86;62.04;95691.84;1502429;95;21119;-55
2022/02/27 03:12:33;;;;;;;65.05;35.17;;;;;;;2.91;62.30;95681.97;1481540;94;21207;-57
2022/02/27 03:15:00;;;;;;;82.42;41.40;;;;;;;3.03;62.21;95685.77;1502345;94;21132;-58
2022/02/27 03:17:29;;;;;;;83.87;41.92;;;;;;;3.18;61.78;95686.66;1497602;94;21057;-56
2022/02/27 03:19:56;;;;;;;73.20;37.75;;;;;;;3.27;61.53;95692.56;1515807;94;21060;-56
2022/02/27 03:22:23;;;;;;;62.90;35.10;;;;;;;3.26;61.25;95688.29;1522853;93;21183;-56
2022/02/27 03:24:50;;;;;;;82.40;41.88;;;;;;;3.19;61.33;95690.94;1502697;92;21109;-62
2022/02/27 03:27:17;;;;;;;79.87;39.67;;;;;;;3.13;61.52;95697.89;1475231;94;21112;-60
2022/02/27 03:29:43;;;;;;;81.02;40.85;;;;;;;3.05;61.89;95701.72;1475811;96;21093;-59
2022/02/27 03:32:10;;;;;;;86.02;42.20;;;;;;;2.99;62.23;95696.41;1461548;96;21114;-63
2022/02/27 03:34:37;;;;;;;76.92;37.45;;;;;;;2.98;62.36;95692.13;1472736;96;21131;-63
2022/02/27 03:37:05;;;;;;;63.05;33.88;;;;;;;2.90;62.56;95697.31;1486863;95;21188;-59
2022/02/27 03:39:32;;;;;;;80.65;40.20;;;;;;;2.79;63.02;95693.70;1500744;94;21134;-58
2022/02/27 03:41:58;;;;;;;83.35;41.92;;;;;;;2.73;63.35;95695.98;1502597;94;21506;-58
2022/02/27 03:44:25;;;;;;;82.53;42.33;;;;;;;2.68;63.47;95698.28;1483570;95;21076;-58
2022/02/27 03:46:52;;;;;;;87.35;42.95;;;;;;;2.65;63.64;95704.46;1502201;94;21571;-59
2022/02/27 03:49:19;;;;;;;82.35;40.80;;;;;;;2.67;64.01;95695.36;1459376;94;21851;-60
2022/02/27 03:51:45;;;;;;;80.77;41.33;;;;;;;2.74;63.91;95702.20;1467524;94;21032;-58
2022/02/27 03:54:12;;;;;;;81.50;39.90;;;;;;;2.73;63.92;95702.00;1486726;95;21183;-58
2022/02/27 03:56:39;;;;;;;70.10;37.63;;;;;;;2.67;64.17;95695.36;1500886;95;21586;-57
2022/02/27 03:59:06;;;;;;;73.15;39.98;;;;;;;2.68;64.22;95699.05;1480360;95;21099;-57
2022/02/27 04:01:33;;;;;;;80.22;40.33;;;;;;;2.69;64.33;95695.77;1506966;94;21568;-60
2022/02/27 04:04:01;;;;;;;91.50;50.30;;;;;;;2.56;64.37;95702.61;1514475;94;21175;-57
2022/02/27 04:06:28;;;;;;;89.28;47.83;;;;;;;2.43;64.64;95701.30;1545180;91;21238;-57
2022/02/27 04:08:55;;;;;;;82.42;42.80;;;;;;;2.40;64.83;95699.33;1502045;94;21181;-58
2022/02/27 04:11:22;;;;;;;98.67;51.23;;;;;;;2.36;64.84;95696.56;1484703;94;21191;-56
2022/02/27 04:13:49;;;;;;;107.12;52.90;;;;;;;2.30;65.02;95698.66;1500037;94;21187;-59
2022/02/27 04:16:16;;;;;;;96.40;50.35;;;;;;;2.29;65.24;95690.30;1492572;94;21101;-57
2022/02/27 04:18:43;;;;;;;93.45;50.33;;;;;;;2.30;65.43;95690.52;1500791;94;21125;-56
2022/02/27 04:21:10;;;;;;;72.40;38.17;;;;;;;2.36;65.51;95691.14;1514517;94;21080;-57
2022/02/27 04:23:37;;;;;;;69.97;36.95;;;;;;;2.46;65.33;95694.55;1516926;93;21016;-58
2022/02/27 04:26:04;;;;;;;63.10;33.53;;;;;;;2.47;65.04;95688.56;1505518;93;21184;-59
2022/02/27 04:28:31;;;;;;;57.55;32.55;;;;;;;2.46;65.02;95697.27;1477787;95;21014;-62
2022/02/27 04:30:59;;;;;;;55.67;31.70;;;;;;;2.50;65.01;95694.60;1478214;96;21114;-57
2022/02/27 04:33:26;;;;;;;62.35;33.30;;;;;;;2.57;64.91;95691.38;1478100;95;21053;-59
2022/02/27 04:35:53;;;;;;;60.92;33.40;;;;;;;2.68;64.94;95684.69;1501032;94;21138;-57
2022/02/27 04:38:21;;;;;;;68.70;35.98;;;;;;;2.80;64.55;95683.04;1503635;93;21229;-57
2022/02/27 04:40:48;;;;;;;89.58;43.50;;;;;;;2.92;64.08;95687.64;1517058;92;21218;-57
2022/02/27 04:43:14;;;;;;;91.53;45.17;;;;;;;2.85;63.71;95690.88;1520867;92;21269;-62
2022/02/27 04:45:41;;;;;;;86.00;43.30;;;;;;;2.77;63.78;95694.66;1514119;94;21185;-61
2022/02/27 04:48:08;;;;;;;83.40;42.13;;;;;;;2.75;63.98;95695.61;1535894;92;21655;-57
2022/02/27 04:50:35;;;;;;;87.97;43.23;;;;;;;2.69;64.05;95702.55;1494280;94;21859;-57
2022/02/27 04:53:02;;;;;;;77.27;38.80;;;;;;;2.61;64.17;95698.19;1504905;94;21111;-55
2022/02/27 04:55:29;;;;;;;88.20;45.70;;;;;;;2.59;64.31;95702.66;1521001;94;21175;-56
2022/02/27 04:57:55;;;;;;;95.77;51.58;;;;;;;2.51;64.49;95707.02;1518369;93;21075;-56
2022/02/27 05:00:22;;;;;;;93.78;49.70;;;;;;;2.39;65.00;95708.63;1514676;94;21167;-56
2022/02/27 05:02:49;;;;;;;97.70;51.00;;;;;;;2.32;65.37;95709.92;1511489;94;21162;-57
2022/02/27 05:05:15;;;;;;;95.87;53.95;;;;;;;2.27;65.60;95704.23;1503080;94;21092;-57
2022/02/27 05:07:42;;;;;;;98.65;52.33;;;;;;;2.29;65.92;95710.66;1517350;92;21559;-56
2022/02/27 05:10:09;;;;;;;93.85;50.63;;;;;;;2.34;65.87;95714.40;1501455;94;21590;-57
2022/02/27 05:12:41;;;;;;;101.12;52.65;;;;;;;2.32;65.91;95717.47;1542568;92;21150;-57
2022/02/27 05:15:09;;;;;;;100.87;54.95;;;;;;;2.36;66.17;95713.45;1518215;92;21182;-55
2022/02/27 05:17:36;;;;;;;114.88;61.25;;;;;;;2.43;65.90;95721.66;1523015;92;21103;-56
2022/02/27 05:20:05;;;;;;;124.00;66.55;;;;;;;2.41;65.93;95719.90;1520465;93;21572;-56
2022/02/27 05:22:33;;;;;;;133.07;68.55;;;;;;;2.42;66.09;95720.09;1508114;94;21663;-56
2022/02/27 05:25:00;;;;;;;129.25;66.55;;;;;;;2.50;65.99;95721.16;1515500;94;21049;-55
2022/02/27 05:27:27;;;;;;;119.30;63.45;;;;;;;2.59;65.86;95716.23;1505496;94;21232;-54
2022/02/27 05:29:53;;;;;;;101.65;54.27;;;;;;;2.71;65.56;95720.02;1508823;92;21571;-56
2022/02/27 05:32:20;;;;;;;91.97;50.03;;;;;;;2.72;65.38;95716.15;1519486;94;21055;-56
2022/02/27 05:34:47;;;;;;;92.22;51.83;;;;;;;2.71;65.21;95726.05;1497829;94;21028;-55
2022/02/27 05:37:14;;;;;;;106.50;55.40;;;;;;;2.70;65.36;95720.41;1504081;94;21582;-55
2022/02/27 05:39:40;;;;;;;95.45;52.38;;;;;;;2.73;65.46;95720.42;1524539;94;21481;-55
2022/02/27 05:42:07;;;;;;;99.97;53.23;;;;;;;2.81;65.48;95721.28;1514526;92;21058;-56
2022/02/27 05:44:34;;;;;;;103.83;54.70;;;;;;;2.87;65.53;95719.80;1519450;93;21055;-56
2022/02/27 05:47:03;;;;;;;102.30;56.18;;;;;;;2.95;65.31;95717.34;1522314;94;21069;-56
2022/02/27 05:49:30;;;;;;;180.15;81.08;;;;;;;3.04;65.15;95719.19;1506986;94;21488;-57
2022/02/27 05:51:58;;;;;;;223.87;98.80;;;;;;;3.09;65.09;95724.27;1510559;93;21215;-56
2022/02/27 05:54:25;;;;;;;144.30;67.62;;;;;;;3.21;64.97;95728.84;1503393;94;21124;-55
2022/02/27 05:56:51;;;;;;;150.95;69.58;;;;;;;3.38;64.48;95733.64;1508464;94;21309;-58
2022/02/27 05:59:20;;;;;;;129.00;62.38;;;;;;;3.40;63.99;95737.35;1511935;94;21184;-57
2022/02/27 06:01:48;;;;;;;106.60;56.37;;;;;;;3.33;63.82;95732.63;1505292;93;21448;-58
2022/02/27 06:04:18;;;;;;;140.85;72.60;;;;;;;3.27;63.97;95733.36;1519458;94;21167;-58
2022/02/27 06:06:45;;;;;;;145.53;71.97;;;;;;;3.24;64.14;95735.47;1510120;94;21124;-56
2022/02/27 06:09:11;;;;;;;158.42;84.70;;;;;;;3.29;64.28;95731.83;1514235;94;21036;-56
2022/02/27 06:11:38;;;;;;;151.63;83.58;;;;;;;3.29;63.99;95734.55;1513616;94;21052;-56
2022/02/27 06:14:06;;;;;;;141.07;76.37;;;;;;;3.25;63.93;95734.31;1498637;94;21571;-57
2022/02/27 06:16:34;;;;;;;153.02;82.75;;;;;;;3.22;63.95;95736.42;1523204;92;21174;-57
2022/02/27 06:19:01;;;;;;;182.25;95.00;;;;;;;3.19;63.94;95732.52;1512288;94;21039;-56
2022/02/27 06:21:28;;;;;;;188.80;96.78;;;;;;;3.15;64.19;95733.63;1518644;94;21076;-56
2022/02/27 06:23:55;;;;;;;177.85;94.42;;;;;;;3.14;64.27;95739.66;1518419;94;21024;-56
2022/02/27 06:26:21;;;;;;;182.10;97.45;;;;;;;3.23;64.31;95740.70;1497454;94;21105;-57
2022/02/27 06:28:48;;;;;;;150.40;78.70;;;;;;;3.27;63.98;95748.31;1506652;94;21168;-58
2022/02/27 06:31:14;;;;;;;195.40;106.43;;;;;;;3.26;64.02;95752.19;1503386;94;21536;-57
2022/02/27 06:33:41;;;;;;;129.75;74.10;;;;;;;3.21;63.84;95751.95;1507749;94;21505;-59
2022/02/27 06:36:08;;;;;;;132.63;75.92;;;;;;;3.15;63.76;95750.73;1499424;94;21035;-57
2022/02/27 06:38:35;;;;;;;125.85;68.95;;;;;;;3.12;64.00;95756.92;1491343;94;21071;-57
2022/02/27 06:41:02;;;;;;;137.80;75.15;;;;;;;3.14;63.87;95759.25;1517054;94;21138;-60
2022/02/27 06:43:31;;;;;;;128.75;73.57;;;;;;;3.04;63.82;95758.00;1504371;94;21170;-58
2022/02/27 06:45:57;;;;;;;115.50;63.05;;;;;;;3.06;63.87;95763.08;1474327;95;21085;-57
2022/02/27 06:48:23;;;;;;;107.15;60.50;;;;;;;3.15;63.42;95761.61;1436318;98;21162;-65
2022/02/27 06:50:50;;;;;;;102.05;60.00;;;;;;;3.16;63.18;95760.45;1486493;95;21094;-57
2022/02/27 06:53:17;;;;;;;109.83;62.93;;;;;;;3.19;63.16;95763.78;1496106;94;21125;-56
2022/02/27 06:55:44;;;;;;;127.53;71.95;;;;;;;3.31;62.81;95763.50;1501248;94;21180;-56
2022/02/27 06:58:10;;;;;;;123.18;69.75;;;;;;;3.44;62.65;95763.99;1468784;95;21086;-57
2022/02/27 07:00:37;;;;;;;115.17;65.78;;;;;;;3.60;62.83;95761.19;1465260;96;21042;-56
2022/02/27 07:03:04;;;;;;;123.50;71.17;;;;;;;3.77;62.12;95769.50;1482636;95;21650;-56
2022/02/27 07:05:31;;;;;;;129.18;71.75;;;;;;;3.77;61.71;95770.86;1508902;94;21307;-57
2022/02/27 07:07:58;;;;;;;126.67;73.55;;;;;;;3.70;61.87;95773.51;1503235;93;21167;-53
2022/02/27 07:10:26;;;;;;;117.95;66.17;;;;;;;3.70;61.68;95766.70;1511411;94;21087;-53
2022/02/27 07:12:55;;;;;;;97.70;56.77;;;;;;;3.74;61.47;95758.58;1518434;93;21638;-52
2022/02/27 07:15:21;;;;;;;80.42;46.13;;;;;;;3.75;61.17;95764.22;1497816;94;21063;-55
2022/02/27 07:17:48;;;;;;;61.95;36.77;;;;;;;3.75;61.14;95769.09;1502698;94;21461;-51
2022/02/27 07:20:15;;;;;;;56.98;31.57;;;;;;;3.80;60.64;95763.29;1515894;93;21143;-55
2022/02/27 07:22:42;;;;;;;51.98;29.98;;;;;;;3.81;60.01;95770.86;1506654;92;21124;-57
2022/02/27 07:25:10;;;;;;;63.78;35.52;;;;;;;3.75;59.92;95773.18;1504188;94;21514;-52
2022/02/27 07:27:36;;;;;;;113.47;66.05;;;;;;;3.67;59.85;95766.70;1490173;94;21202;-54
2022/02/27 07:30:05;;;;;;;100.97;59.80;;;;;;;3.65;60.08;95767.66;1508335;93;21261;-52
2022/02/27 07:32:33;;;;;;;103.97;59.48;;;;;;;3.62;60.21;95770.55;1497180;93;21247;-53
2022/02/27 07:34:59;;;;;;;99.90;54.15;;;;;;;3.64;60.49;95768.23;1495808;93;21034;-52
2022/02/27 07:37:26;;;;;;;85.60;50.05;;;;;;;3.75;60.45;95771.02;1497855;93;21526;-52
2022/02/27 07:39:54;;;;;;;94.60;53.02;;;;;;;3.89;60.13;95763.72;1506346;94;21171;-53
2022/02/27 07:42:27;;;;;;;101.27;56.63;;;;;;;3.89;59.94;95775.20;1487807;93;22015;-55
2022/02/27 07:44:56;;;;;;;119.90;67.00;;;;;;;3.97;60.17;95772.72;1514084;93;21148;-53
2022/02/27 07:47:24;;;;;;;108.63;60.48;;;;;;;4.01;60.07;95772.15;1516759;92;21135;-55
2022/02/27 07:49:50;;;;;;;100.67;57.93;;;;;;;4.06;59.98;95769.85;1503471;93;21167;-53
2022/02/27 07:52:17;;;;;;;118.75;64.03;;;;;;;4.06;59.45;95771.22;1496568;94;21714;-55
2022/02/27 07:54:44;;;;;;;77.92;44.83;;;;;;;4.03;59.54;95777.42;1499267;94;21843;-52
2022/02/27 07:57:11;;;;;;;66.82;36.58;;;;;;;4.06;59.22;95773.94;1482263;95;21175;-53
2022/02/27 07:59:38;;;;;;;45.67;26.12;;;;;;;4.13;58.49;95766.39;1507045;93;21704;-53
2022/02/27 08:02:05;;;;;;;78.97;41.58;;;;;;;4.12;57.97;95764.27;1496774;94;21104;-52
2022/02/27 08:04:32;;;;;;;82.15;49.70;;;;;;;4.12;58.29;95771.64;1502603;93;21153;-56
2022/02/27 08:07:01;;;;;;;72.20;43.48;;;;;;;4.17;58.66;95771.27;1472202;94;21170;-53
2022/02/27 08:09:28;;;;;;;74.50;43.50;;;;;;;4.34;58.49;95768.66;1491340;95;21052;-52
2022/02/27 08:11:56;;;;;;;69.58;42.75;;;;;;;4.43;57.81;95767.70;1485064;95;21146;-54
2022/02/27 08:14:22;;;;;;;78.28;43.55;;;;;;;4.61;57.13;95768.55;1502270;93;21123;-53
2022/02/27 08:16:49;;;;;;;74.62;42.05;;;;;;;4.77;56.73;95774.45;1515291;92;21099;-51
2022/02/27 08:19:16;;;;;;;80.07;42.27;;;;;;;4.86;56.60;95774.09;1506968;93;21278;-54
2022/02/27 08:21:46;;;;;;;65.95;39.00;;;;;;;4.88;56.22;95763.58;1503472;94;21155;-56
2022/02/27 08:24:13;;;;;;;75.50;42.55;;;;;;;4.92;55.84;95767.09;1488867;94;21105;-53
2022/02/27 08:26:39;;;;;;;96.78;41.37;;;;;;;4.95;55.71;95766.34;1470888;95;21078;-53
2022/02/27 08:29:08;;;;;;;71.28;38.02;;;;;;;5.03;55.33;95767.33;1457133;96;21667;-56
2022/02/27 08:31:39;;;;;;;59.20;34.05;;;;;;;5.13;54.86;95763.06;1517586;94;21215;-55
2022/02/27 08:34:05;;;;;;;67.72;31.17;;;;;;;5.22;53.73;95755.27;1514351;92;21180;-53
2022/02/27 08:36:32;;;;;;;46.10;22.48;;;;;;;5.35;53.06;95757.22;1508759;94;21107;-54
2022/02/27 08:39:00;;;;;;;23.32;15.78;;;;;;;5.49;52.17;95758.03;1518768;92;21089;-53
2022/02/27 08:41:27;;;;;;;22.90;12.35;;;;;;;5.69;51.34;95757.03;1504542;94;21215;-56
2022/02/27 08:43:54;;;;;;;26.40;18.30;;;;;;;5.86;50.38;95753.55;1514826;93;21241;-54
2022/02/27 08:46:21;;;;;;;23.18;12.93;;;;;;;5.97;49.59;95750.98;1496919;94;21015;-52
2022/02/27 08:48:49;;;;;;;19.80;11.28;;;;;;;6.09;49.09;95745.69;1495237;94;22106;-54
2022/02/27 08:51:16;;;;;;;24.63;13.32;;;;;;;6.13;48.39;95749.22;1500080;94;21082;-53
2022/02/27 08:53:43;;;;;;;22.37;13.58;;;;;;;6.16;48.39;95744.32;1510031;93;21584;-57
2022/02/27 08:56:10;;;;;;;32.98;18.80;;;;;;;6.20;46.60;95744.52;1510260;93;21599;-53
2022/02/27 08:58:37;;;;;;;38.80;22.25;;;;;;;6.18;46.99;95742.73;1500384;93;21041;-55
2022/02/27 09:01:04;;;;;;;34.40;16.95;;;;;;;6.19;46.76;95743.53;1507324;94;21086;-53
2022/02/27 09:03:31;;;;;;;28.75;14.58;;;;;;;6.29;46.86;95742.70;1502638;93;21087;-56
2022/02/27 09:05:59;;;;;;;24.90;14.25;;;;;;;6.39;46.92;95748.73;1506846;93;22604;-55
2022/02/27 09:08:27;;;;;;;19.27;11.28;;;;;;;6.51;46.72;95746.34;1493755;94;21299;-57
2022/02/27 09:10:54;;;;;;;16.95;10.88;;;;;;;6.58;45.95;95741.44;1497189;94;21252;-53
2022/02/27 09:13:21;;;;;;;18.60;9.63;;;;;;;6.59;45.23;95741.63;1499256;93;21117;-57
2022/02/27 09:15:50;;;;;;;14.03;9.25;;;;;;;6.56;44.79;95739.69;1506883;93;21038;-54
2022/02/27 09:18:17;;;;;;;12.60;9.33;;;;;;;6.51;43.90;95733.28;1506695;92;21071;-54
2022/02/27 09:20:44;;;;;;;28.47;13.18;;;;;;;6.46;44.33;95745.39;1517675;93;21192;-53
2022/02/27 09:23:12;;;;;;;16.57;10.45;;;;;;;6.45;44.85;95741.67;1517607;93;21071;-57
2022/02/27 09:25:38;;;;;;;17.00;8.90;;;;;;;6.50;44.29;95748.13;1511934;92;21182;-53
2022/02/27 09:28:05;;;;;;;14.83;9.08;;;;;;;6.58;43.72;95744.17;1502315;93;21082;-52
2022/02/27 09:30:33;;;;;;;14.35;8.20;;;;;;;6.61;43.52;95742.00;1521180;93;21035;-55
2022/02/27 09:33:00;;;;;;;18.67;9.60;;;;;;;6.61;43.38;95743.38;1520086;92;21185;-56
2022/02/27 09:35:28;;;;;;;21.80;9.48;;;;;;;6.63;43.12;95741.02;1512003;92;21076;-55
2022/02/27 09:38:00;;;;;;;18.62;12.70;;;;;;;6.73;43.54;95738.83;1510075;93;21218;-53
2022/02/27 09:40:27;;;;;;;17.07;11.15;;;;;;;6.80;43.74;95740.16;1484033;94;21139;-56
2022/02/27 09:42:55;;;;;;;16.52;9.80;;;;;;;6.83;42.78;95736.62;1510030;93;21128;-55
2022/02/27 09:45:23;;;;;;;17.23;10.72;;;;;;;6.79;42.08;95733.13;1501238;93;21191;-55
2022/02/27 09:47:51;;;;;;;26.57;12.93;;;;;;;6.77;41.57;95732.75;1511010;92;21040;-55
2022/02/27 09:50:19;;;;;;;17.55;10.28;;;;;;;6.72;41.53;95726.34;1514856;92;21103;-58
2022/02/27 09:52:46;;;;;;;20.90;12.95;;;;;;;6.70;41.56;95728.70;1504171;93;21090;-54
2022/02/27 09:55:16;;;;;;;21.87;12.90;;;;;;;6.65;42.04;95733.19;1512256;93;21540;-53
2022/02/27 09:57:49;;;;;;;23.62;13.68;;;;;;;6.64;42.40;95734.38;1518431;92;21103;-54
2022/02/27 10:00:18;;;;;;;19.50;11.15;;;;;;;6.58;42.13;95721.73;1518024;92;21055;-55
2022/02/27 10:03:10;;;;;;;18.32;10.55;;;;;;;6.53;42.16;95722.72;1516244;92;21100;-55
2022/02/27 10:05:44;;;;;;;20.35;12.03;;;;;;;6.46;41.60;95724.09;1485643;94;21088;-57
2022/02/27 10:08:16;;;;;;;16.90;8.65;;;;;;;6.37;41.69;95725.89;1519171;93;21119;-54
2022/02/27 10:10:57;;;;;;;14.85;8.10;;;;;;;6.30;41.21;95719.09;1509208;94;21165;-55
2022/02/27 10:13:37;;;;;;;14.60;7.55;;;;;;;6.27;40.98;95720.46;1514857;94;21114;-57
2022/02/27 10:16:15;;;;;;;16.15;9.98;;;;;;;6.20;40.70;95721.29;1521774;94;21238;-55
2022/02/27 10:18:52;;;;;;;20.10;10.43;;;;;;;6.10;41.39;95713.10;1488234;93;21614;-54
2022/02/27 10:21:39;;;;;;;17.48;11.45;;;;;;;6.01;40.78;95712.75;1518358;93;21024;-55
2022/02/27 10:24:11;;;;;;;22.42;11.45;;;;;;;5.97;40.62;95710.02;1502930;93;21218;-55
2022/02/27 10:26:43;;;;;;;14.63;10.75;;;;;;;5.93;41.24;95711.22;1507367;94;21012;-54
2022/02/27 10:29:22;;;;;;;12.60;8.03;;;;;;;5.86;40.41;95708.48;1510523;93;21028;-55
2022/02/27 10:31:57;;;;;;;10.63;6.62;;;;;;;5.80;40.54;95704.00;1498487;93;21098;-58
2022/02/27 10:34:34;;;;;;;12.35;7.95;;;;;;;5.77;40.59;95701.27;1481223;94;21092;-55
2022/02/27 10:37:15;;;;;;;10.15;6.33;;;;;;;5.74;40.35;95702.03;1506774;93;21667;-55
2022/02/27 10:39:48;;;;;;;13.48;6.28;;;;;;;5.74;41.19;95706.12;1494045;94;21057;-54
2022/02/27 10:42:21;;;;;;;12.33;5.55;;;;;;;5.70;41.21;95697.17;1499394;94;21086;-54
2022/02/27 10:45:03;;;;;;;11.30;5.92;;;;;;;5.66;40.83;95693.10;1483540;94;21207;-53
2022/02/27 10:47:35;;;;;;;12.90;5.37;;;;;;;5.60;40.72;95687.06;1517703;93;21093;-54
2022/02/27 10:50:13;;;;;;;12.90;7.17;;;;;;;5.62;40.06;95683.35;1520460;92;21171;-54
2022/02/27 10:52:46;;;;;;;14.40;8.00;;;;;;;5.68;40.16;95681.20;1507444;93;21000;-54
2022/02/27 10:55:14;;;;;;;21.23;9.90;;;;;;;5.69;41.25;95687.42;1483997;90;21537;-54
2022/02/27 10:57:46;;;;;;;7.65;5.80;;;;;;;5.68;41.52;95688.59;1530901;92;21522;-54
2022/02/27 11:00:27;;;;;;;13.75;7.97;;;;;;;5.62;41.84;95687.45;1496649;94;21512;-55
2022/02/27 11:03:08;;;;;;;10.93;6.33;;;;;;;5.56;41.99;95686.27;1497379;95;21902;-54
2022/02/27 11:05:41;;;;;;;9.83;5.72;;;;;;;5.56;42.77;95690.36;1502002;92;23039;-54
2022/02/27 11:08:10;;;;;;;9.75;6.03;;;;;;;5.57;42.80;95685.13;1526112;91;21509;-54
2022/02/27 11:10:40;;;;;;;11.38;6.95;;;;;;;5.53;42.98;95681.59;1546508;90;21527;-53
2022/02/27 11:13:12;;;;;;;19.87;10.35;;;;;;;5.52;42.95;95681.41;1549448;90;21006;-53
2022/02/27 11:15:45;;;;;;;11.97;8.10;;;;;;;5.53;42.64;95681.59;1494269;94;21178;-56
2022/02/27 11:18:12;;;;;;;13.78;6.70;;;;;;;5.52;43.15;95664.45;1517542;90;21058;-54
2022/02/27 11:20:44;;;;;;;13.38;7.62;;;;;;;5.51;42.93;95668.36;1548989;90;21058;-54
2022/02/27 11:23:14;;;;;;;18.60;7.65;;;;;;;5.59;43.33;95659.58;1547317;90;21157;-55
2022/02/27 11:25:43;;;;;;;32.08;11.73;;;;;;;5.67;42.91;95663.84;1547951;90;21091;-55
2022/02/27 11:28:12;;;;;;;16.95;8.90;;;;;;;5.70;42.28;95656.22;1547700;90;21155;-56